sensor_id;sensor_type;location;lat;lon;timestamp;P1;durP1;ratioP1;P2;durP2;ratioP2
34928;SDS011;21133;48.048;7.724;2023-02-05T00:01:13;11.47;;;5.60;;
34928;SDS011;21133;48.048;7.724;2023-02-05T00:03:39;11.60;;;6.20;;
34928;SDS011;21133;48.048;7.724;2023-02-05T00:06:06;7.23;;;5.87;;
34928;SDS011;21133;48.048;7.724;2023-02-05T00:08:32;8.60;;;5.80;;
34928;SDS011;21133;48.048;7.724;2023-02-05T00:10:58;7.20;;;5.57;;
34928;SDS011;21133;48.048;7.724;2023-02-05T00:13:32;6.20;;;4.70;;
34928;SDS011;21133;48.048;7.724;2023-02-05T00:15:58;7.97;;;4.73;;
34928;SDS011;21133;48.048;7.724;2023-02-05T00:18:24;4.97;;;4.00;;
34928;SDS011;21133;48.048;7.724;2023-02-05T00:20:50;3.80;;;3.60;;
34928;SDS011;21133;48.048;7.724;2023-02-05T00:23:16;5.47;;;3.70;;
34928;SDS011;21133;48.048;7.724;2023-02-05T00:25:42;4.77;;;3.53;;
34928;SDS011;21133;48.048;7.724;2023-02-05T00:28:08;6.10;;;3.47;;
34928;SDS011;21133;48.048;7.724;2023-02-05T00:30:34;4.00;;;3.37;;
34928;SDS011;21133;48.048;7.724;2023-02-05T00:33:00;3.60;;;3.27;;
34928;SDS011;21133;48.048;7.724;2023-02-05T00:35:26;4.93;;;3.90;;
34928;SDS011;21133;48.048;7.724;2023-02-05T00:37:52;8.20;;;3.87;;
34928;SDS011;21133;48.048;7.724;2023-02-05T00:40:18;4.77;;;4.13;;
34928;SDS011;21133;48.048;7.724;2023-02-05T00:42:44;7.60;;;3.23;;
34928;SDS011;21133;48.048;7.724;2023-02-05T00:45:09;3.50;;;3.30;;
34928;SDS011;21133;48.048;7.724;2023-02-05T00:47:35;3.87;;;3.67;;
34928;SDS011;21133;48.048;7.724;2023-02-05T00:50:01;7.13;;;6.50;;
34928;SDS011;21133;48.048;7.724;2023-02-05T00:52:27;4.33;;;3.80;;
34928;SDS011;21133;48.048;7.724;2023-02-05T00:54:53;6.20;;;4.00;;
34928;SDS011;21133;48.048;7.724;2023-02-05T00:57:19;3.80;;;3.50;;
34928;SDS011;21133;48.048;7.724;2023-02-05T00:59:48;5.23;;;4.10;;
34928;SDS011;21133;48.048;7.724;2023-02-05T01:02:14;6.27;;;3.50;;
34928;SDS011;21133;48.048;7.724;2023-02-05T01:04:40;3.80;;;2.77;;
34928;SDS011;21133;48.048;7.724;2023-02-05T01:07:06;3.00;;;2.63;;
34928;SDS011;21133;48.048;7.724;2023-02-05T01:09:32;7.53;;;2.83;;
34928;SDS011;21133;48.048;7.724;2023-02-05T01:11:58;3.77;;;2.80;;
34928;SDS011;21133;48.048;7.724;2023-02-05T01:14:24;2.00;;;1.87;;
34928;SDS011;21133;48.048;7.724;2023-02-05T01:16:50;2.87;;;2.67;;
34928;SDS011;21133;48.048;7.724;2023-02-05T01:19:16;3.20;;;3.03;;
34928;SDS011;21133;48.048;7.724;2023-02-05T01:21:42;2.63;;;2.43;;
34928;SDS011;21133;48.048;7.724;2023-02-05T01:24:08;2.77;;;2.60;;
34928;SDS011;21133;48.048;7.724;2023-02-05T01:26:34;4.87;;;2.90;;
34928;SDS011;21133;48.048;7.724;2023-02-05T01:29:00;3.33;;;2.50;;
34928;SDS011;21133;48.048;7.724;2023-02-05T01:31:26;3.90;;;2.33;;
34928;SDS011;21133;48.048;7.724;2023-02-05T01:33:53;2.40;;;2.30;;
34928;SDS011;21133;48.048;7.724;2023-02-05T01:36:19;3.30;;;2.17;;
34928;SDS011;21133;48.048;7.724;2023-02-05T01:38:45;5.93;;;3.53;;
34928;SDS011;21133;48.048;7.724;2023-02-05T01:41:12;6.17;;;2.33;;
34928;SDS011;21133;48.048;7.724;2023-02-05T01:43:38;4.33;;;2.77;;
34928;SDS011;21133;48.048;7.724;2023-02-05T01:46:06;5.47;;;2.90;;
34928;SDS011;21133;48.048;7.724;2023-02-05T01:48:34;3.50;;;3.20;;
34928;SDS011;21133;48.048;7.724;2023-02-05T01:51:05;3.70;;;3.37;;
34928;SDS011;21133;48.048;7.724;2023-02-05T01:53:34;10.70;;;6.70;;
34928;SDS011;21133;48.048;7.724;2023-02-05T01:56:08;7.10;;;4.63;;
34928;SDS011;21133;48.048;7.724;2023-02-05T01:58:36;5.93;;;5.00;;
34928;SDS011;21133;48.048;7.724;2023-02-05T02:01:05;4.10;;;3.70;;
34928;SDS011;21133;48.048;7.724;2023-02-05T02:03:31;3.70;;;3.50;;
34928;SDS011;21133;48.048;7.724;2023-02-05T02:05:57;4.00;;;3.60;;
34928;SDS011;21133;48.048;7.724;2023-02-05T02:08:23;3.40;;;3.20;;
34928;SDS011;21133;48.048;7.724;2023-02-05T02:10:50;2.70;;;2.60;;
34928;SDS011;21133;48.048;7.724;2023-02-05T02:13:17;6.30;;;3.37;;
34928;SDS011;21133;48.048;7.724;2023-02-05T02:15:44;3.57;;;3.27;;
34928;SDS011;21133;48.048;7.724;2023-02-05T02:18:10;2.73;;;2.63;;
34928;SDS011;21133;48.048;7.724;2023-02-05T02:21:11;2.60;;;2.43;;
34928;SDS011;21133;48.048;7.724;2023-02-05T02:28:34;3.10;;;2.90;;
34928;SDS011;21133;48.048;7.724;2023-02-05T02:34:16;3.40;;;2.37;;
34928;SDS011;21133;48.048;7.724;2023-02-05T02:38:51;7.10;;;2.47;;
34928;SDS011;21133;48.048;7.724;2023-02-05T02:41:23;3.07;;;2.23;;
34928;SDS011;21133;48.048;7.724;2023-02-05T02:43:57;2.43;;;2.30;;
34928;SDS011;21133;48.048;7.724;2023-02-05T02:46:25;2.63;;;2.33;;
34928;SDS011;21133;48.048;7.724;2023-02-05T02:48:53;5.10;;;2.43;;
34928;SDS011;21133;48.048;7.724;2023-02-05T02:51:20;2.63;;;2.13;;
34928;SDS011;21133;48.048;7.724;2023-02-05T02:53:49;3.50;;;2.50;;
34928;SDS011;21133;48.048;7.724;2023-02-05T02:56:16;2.83;;;2.33;;
34928;SDS011;21133;48.048;7.724;2023-02-05T02:58:45;2.70;;;2.13;;
34928;SDS011;21133;48.048;7.724;2023-02-05T03:01:12;2.90;;;2.80;;
34928;SDS011;21133;48.048;7.724;2023-02-05T03:03:41;2.97;;;2.77;;
34928;SDS011;21133;48.048;7.724;2023-02-05T03:06:10;3.43;;;3.03;;
34928;SDS011;21133;48.048;7.724;2023-02-05T03:08:39;2.70;;;2.50;;
34928;SDS011;21133;48.048;7.724;2023-02-05T03:11:09;3.07;;;2.87;;
34928;SDS011;21133;48.048;7.724;2023-02-05T03:13:36;3.53;;;2.60;;
34928;SDS011;21133;48.048;7.724;2023-02-05T03:16:02;5.03;;;2.90;;
34928;SDS011;21133;48.048;7.724;2023-02-05T03:18:29;2.50;;;2.40;;
34928;SDS011;21133;48.048;7.724;2023-02-05T03:21:01;4.43;;;2.10;;
34928;SDS011;21133;48.048;7.724;2023-02-05T03:23:28;2.20;;;2.10;;
34928;SDS011;21133;48.048;7.724;2023-02-05T03:25:54;2.30;;;2.07;;
34928;SDS011;21133;48.048;7.724;2023-02-05T03:28:20;4.27;;;3.00;;
34928;SDS011;21133;48.048;7.724;2023-02-05T03:30:51;5.60;;;3.60;;
34928;SDS011;21133;48.048;7.724;2023-02-05T03:33:28;2.57;;;2.40;;
34928;SDS011;21133;48.048;7.724;2023-02-05T03:38:48;2.93;;;2.73;;
34928;SDS011;21133;48.048;7.724;2023-02-05T03:44:13;3.47;;;3.27;;
34928;SDS011;21133;48.048;7.724;2023-02-05T03:46:44;3.67;;;3.37;;
34928;SDS011;21133;48.048;7.724;2023-02-05T03:49:20;3.77;;;3.37;;
34928;SDS011;21133;48.048;7.724;2023-02-05T03:56:52;12.53;;;2.60;;
34928;SDS011;21133;48.048;7.724;2023-02-05T03:59:20;3.53;;;3.20;;
34928;SDS011;21133;48.048;7.724;2023-02-05T04:01:46;3.33;;;2.93;;
34928;SDS011;21133;48.048;7.724;2023-02-05T04:04:12;3.40;;;3.30;;
34928;SDS011;21133;48.048;7.724;2023-02-05T04:06:38;4.90;;;3.23;;
34928;SDS011;21133;48.048;7.724;2023-02-05T04:09:04;3.50;;;3.20;;
34928;SDS011;21133;48.048;7.724;2023-02-05T04:11:30;3.70;;;2.80;;
34928;SDS011;21133;48.048;7.724;2023-02-05T04:13:59;2.60;;;2.50;;
34928;SDS011;21133;48.048;7.724;2023-02-05T04:16:25;2.80;;;2.67;;
34928;SDS011;21133;48.048;7.724;2023-02-05T04:18:51;3.23;;;2.70;;
34928;SDS011;21133;48.048;7.724;2023-02-05T04:21:17;4.63;;;2.70;;
34928;SDS011;21133;48.048;7.724;2023-02-05T04:23:43;2.80;;;2.70;;
34928;SDS011;21133;48.048;7.724;2023-02-05T04:26:09;5.37;;;3.13;;
34928;SDS011;21133;48.048;7.724;2023-02-05T04:28:35;13.20;;;3.70;;
34928;SDS011;21133;48.048;7.724;2023-02-05T04:31:01;4.80;;;3.10;;
34928;SDS011;21133;48.048;7.724;2023-02-05T04:33:27;3.50;;;3.30;;
34928;SDS011;21133;48.048;7.724;2023-02-05T04:35:56;3.20;;;2.50;;
34928;SDS011;21133;48.048;7.724;2023-02-05T04:38:22;2.50;;;2.30;;
34928;SDS011;21133;48.048;7.724;2023-02-05T04:40:48;2.73;;;2.50;;
34928;SDS011;21133;48.048;7.724;2023-02-05T04:43:14;2.67;;;2.57;;
34928;SDS011;21133;48.048;7.724;2023-02-05T04:45:40;3.17;;;3.00;;
34928;SDS011;21133;48.048;7.724;2023-02-05T04:48:06;2.97;;;2.70;;
34928;SDS011;21133;48.048;7.724;2023-02-05T04:50:32;2.93;;;2.83;;
34928;SDS011;21133;48.048;7.724;2023-02-05T04:52:58;2.97;;;2.70;;
34928;SDS011;21133;48.048;7.724;2023-02-05T04:55:26;3.30;;;3.10;;
34928;SDS011;21133;48.048;7.724;2023-02-05T04:57:52;2.73;;;2.63;;
34928;SDS011;21133;48.048;7.724;2023-02-05T05:00:18;3.07;;;2.70;;
34928;SDS011;21133;48.048;7.724;2023-02-05T05:02:44;3.00;;;2.70;;
34928;SDS011;21133;48.048;7.724;2023-02-05T05:05:10;5.10;;;2.60;;
34928;SDS011;21133;48.048;7.724;2023-02-05T05:07:37;3.47;;;3.27;;
34928;SDS011;21133;48.048;7.724;2023-02-05T05:10:03;3.30;;;3.17;;
34928;SDS011;21133;48.048;7.724;2023-02-05T05:12:31;2.47;;;2.37;;
34928;SDS011;21133;48.048;7.724;2023-02-05T05:14:57;4.47;;;3.33;;
34928;SDS011;21133;48.048;7.724;2023-02-05T05:17:23;3.70;;;2.27;;
34928;SDS011;21133;48.048;7.724;2023-02-05T05:19:49;4.20;;;3.30;;
34928;SDS011;21133;48.048;7.724;2023-02-05T05:22:15;9.77;;;3.67;;
34928;SDS011;21133;48.048;7.724;2023-02-05T05:24:41;4.00;;;2.97;;
34928;SDS011;21133;48.048;7.724;2023-02-05T05:27:07;2.70;;;2.60;;
34928;SDS011;21133;48.048;7.724;2023-02-05T05:29:33;2.90;;;2.53;;
34928;SDS011;21133;48.048;7.724;2023-02-05T05:31:59;2.53;;;2.43;;
34928;SDS011;21133;48.048;7.724;2023-02-05T05:34:25;3.73;;;2.83;;
34928;SDS011;21133;48.048;7.724;2023-02-05T05:36:51;2.50;;;2.40;;
34928;SDS011;21133;48.048;7.724;2023-02-05T05:39:17;5.80;;;3.23;;
34928;SDS011;21133;48.048;7.724;2023-02-05T05:42:03;3.20;;;2.90;;
34928;SDS011;21133;48.048;7.724;2023-02-05T05:44:47;8.43;;;3.50;;
34928;SDS011;21133;48.048;7.724;2023-02-05T05:47:16;3.80;;;3.47;;
34928;SDS011;21133;48.048;7.724;2023-02-05T05:49:42;4.37;;;3.50;;
34928;SDS011;21133;48.048;7.724;2023-02-05T05:52:08;3.83;;;3.53;;
34928;SDS011;21133;48.048;7.724;2023-02-05T05:54:34;4.30;;;2.67;;
34928;SDS011;21133;48.048;7.724;2023-02-05T05:57:00;4.53;;;3.40;;
34928;SDS011;21133;48.048;7.724;2023-02-05T05:59:26;7.10;;;4.57;;
34928;SDS011;21133;48.048;7.724;2023-02-05T06:01:52;3.37;;;3.20;;
34928;SDS011;21133;48.048;7.724;2023-02-05T06:04:18;6.10;;;4.00;;
34928;SDS011;21133;48.048;7.724;2023-02-05T06:06:44;4.10;;;3.70;;
34928;SDS011;21133;48.048;7.724;2023-02-05T06:09:10;3.77;;;3.43;;
34928;SDS011;21133;48.048;7.724;2023-02-05T06:11:36;2.80;;;2.60;;
34928;SDS011;21133;48.048;7.724;2023-02-05T06:14:02;2.73;;;2.53;;
34928;SDS011;21133;48.048;7.724;2023-02-05T06:16:28;3.57;;;3.07;;
34928;SDS011;21133;48.048;7.724;2023-02-05T06:18:54;2.63;;;2.43;;
34928;SDS011;21133;48.048;7.724;2023-02-05T06:21:20;3.23;;;2.10;;
34928;SDS011;21133;48.048;7.724;2023-02-05T06:23:46;3.30;;;2.23;;
34928;SDS011;21133;48.048;7.724;2023-02-05T06:26:12;3.93;;;3.70;;
34928;SDS011;21133;48.048;7.724;2023-02-05T06:28:39;3.53;;;3.30;;
34928;SDS011;21133;48.048;7.724;2023-02-05T06:31:05;9.23;;;2.83;;
34928;SDS011;21133;48.048;7.724;2023-02-05T06:33:31;6.20;;;3.53;;
34928;SDS011;21133;48.048;7.724;2023-02-05T06:35:57;4.83;;;3.30;;
34928;SDS011;21133;48.048;7.724;2023-02-05T06:38:23;4.87;;;3.60;;
34928;SDS011;21133;48.048;7.724;2023-02-05T06:40:49;4.17;;;3.87;;
34928;SDS011;21133;48.048;7.724;2023-02-05T06:43:15;4.37;;;3.90;;
34928;SDS011;21133;48.048;7.724;2023-02-05T06:45:41;5.57;;;4.03;;
34928;SDS011;21133;48.048;7.724;2023-02-05T06:48:07;11.40;;;5.37;;
34928;SDS011;21133;48.048;7.724;2023-02-05T06:50:33;7.60;;;6.30;;
34928;SDS011;21133;48.048;7.724;2023-02-05T06:52:59;4.27;;;3.80;;
34928;SDS011;21133;48.048;7.724;2023-02-05T06:55:25;3.97;;;3.80;;
34928;SDS011;21133;48.048;7.724;2023-02-05T06:57:51;4.57;;;4.00;;
34928;SDS011;21133;48.048;7.724;2023-02-05T07:00:17;5.17;;;4.73;;
34928;SDS011;21133;48.048;7.724;2023-02-05T07:02:43;6.57;;;5.17;;
34928;SDS011;21133;48.048;7.724;2023-02-05T07:05:09;7.53;;;6.07;;
34928;SDS011;21133;48.048;7.724;2023-02-05T07:07:35;9.63;;;6.77;;
34928;SDS011;21133;48.048;7.724;2023-02-05T07:10:02;6.07;;;5.47;;
34928;SDS011;21133;48.048;7.724;2023-02-05T07:12:28;11.40;;;6.43;;
34928;SDS011;21133;48.048;7.724;2023-02-05T07:14:54;10.93;;;5.27;;
34928;SDS011;21133;48.048;7.724;2023-02-05T07:17:20;15.20;;;6.00;;
34928;SDS011;21133;48.048;7.724;2023-02-05T07:19:46;6.90;;;5.80;;
34928;SDS011;21133;48.048;7.724;2023-02-05T07:22:12;8.47;;;6.23;;
34928;SDS011;21133;48.048;7.724;2023-02-05T07:24:38;5.27;;;4.83;;
34928;SDS011;21133;48.048;7.724;2023-02-05T07:27:04;6.43;;;5.20;;
34928;SDS011;21133;48.048;7.724;2023-02-05T07:29:30;7.60;;;5.27;;
34928;SDS011;21133;48.048;7.724;2023-02-05T07:31:56;6.03;;;5.43;;
34928;SDS011;21133;48.048;7.724;2023-02-05T07:34:22;10.00;;;6.87;;
34928;SDS011;21133;48.048;7.724;2023-02-05T07:36:49;8.27;;;5.60;;
34928;SDS011;21133;48.048;7.724;2023-02-05T07:39:15;5.80;;;5.00;;
34928;SDS011;21133;48.048;7.724;2023-02-05T07:41:41;8.97;;;5.70;;
34928;SDS011;21133;48.048;7.724;2023-02-05T07:44:06;6.13;;;5.53;;
34928;SDS011;21133;48.048;7.724;2023-02-05T07:46:32;16.93;;;6.60;;
34928;SDS011;21133;48.048;7.724;2023-02-05T07:48:58;9.07;;;5.87;;
34928;SDS011;21133;48.048;7.724;2023-02-05T07:51:24;7.57;;;6.47;;
34928;SDS011;21133;48.048;7.724;2023-02-05T07:53:51;6.67;;;5.90;;
34928;SDS011;21133;48.048;7.724;2023-02-05T07:56:17;11.80;;;7.40;;
34928;SDS011;21133;48.048;7.724;2023-02-05T07:58:46;9.60;;;6.97;;
34928;SDS011;21133;48.048;7.724;2023-02-05T08:01:12;18.70;;;8.07;;
34928;SDS011;21133;48.048;7.724;2023-02-05T08:03:38;7.53;;;6.57;;
34928;SDS011;21133;48.048;7.724;2023-02-05T08:06:04;6.70;;;6.10;;
34928;SDS011;21133;48.048;7.724;2023-02-05T08:08:31;14.43;;;6.80;;
34928;SDS011;21133;48.048;7.724;2023-02-05T08:10:57;8.17;;;5.17;;
34928;SDS011;21133;48.048;7.724;2023-02-05T08:13:24;7.80;;;6.90;;
34928;SDS011;21133;48.048;7.724;2023-02-05T08:15:50;10.10;;;6.50;;
34928;SDS011;21133;48.048;7.724;2023-02-05T08:18:15;8.90;;;6.03;;
34928;SDS011;21133;48.048;7.724;2023-02-05T08:20:42;6.90;;;6.20;;
34928;SDS011;21133;48.048;7.724;2023-02-05T08:23:08;12.80;;;7.07;;
34928;SDS011;21133;48.048;7.724;2023-02-05T08:25:34;7.30;;;5.00;;
34928;SDS011;21133;48.048;7.724;2023-02-05T08:28:00;9.20;;;6.40;;
34928;SDS011;21133;48.048;7.724;2023-02-05T08:30:26;9.00;;;6.67;;
34928;SDS011;21133;48.048;7.724;2023-02-05T08:32:52;17.00;;;9.30;;
34928;SDS011;21133;48.048;7.724;2023-02-05T08:35:18;9.47;;;6.80;;
34928;SDS011;21133;48.048;7.724;2023-02-05T08:37:44;16.40;;;8.60;;
34928;SDS011;21133;48.048;7.724;2023-02-05T08:40:10;10.33;;;6.50;;
34928;SDS011;21133;48.048;7.724;2023-02-05T08:42:36;17.03;;;9.30;;
34928;SDS011;21133;48.048;7.724;2023-02-05T08:45:02;11.23;;;9.10;;
34928;SDS011;21133;48.048;7.724;2023-02-05T08:47:32;10.97;;;7.83;;
34928;SDS011;21133;48.048;7.724;2023-02-05T08:49:58;20.03;;;9.37;;
34928;SDS011;21133;48.048;7.724;2023-02-05T08:52:24;16.00;;;8.17;;
34928;SDS011;21133;48.048;7.724;2023-02-05T08:54:50;18.23;;;11.13;;
34928;SDS011;21133;48.048;7.724;2023-02-05T08:57:16;16.73;;;9.60;;
34928;SDS011;21133;48.048;7.724;2023-02-05T08:59:42;17.40;;;9.17;;
34928;SDS011;21133;48.048;7.724;2023-02-05T09:02:11;11.23;;;9.03;;
34928;SDS011;21133;48.048;7.724;2023-02-05T09:04:38;19.03;;;9.03;;
34928;SDS011;21133;48.048;7.724;2023-02-05T09:07:04;16.33;;;10.00;;
34928;SDS011;21133;48.048;7.724;2023-02-05T09:09:30;10.23;;;7.10;;
34928;SDS011;21133;48.048;7.724;2023-02-05T09:11:56;17.23;;;8.40;;
34928;SDS011;21133;48.048;7.724;2023-02-05T09:14:22;8.40;;;5.73;;
34928;SDS011;21133;48.048;7.724;2023-02-05T09:16:48;8.13;;;5.77;;
34928;SDS011;21133;48.048;7.724;2023-02-05T09:19:14;15.00;;;6.33;;
34928;SDS011;21133;48.048;7.724;2023-02-05T09:21:40;9.60;;;7.30;;
34928;SDS011;21133;48.048;7.724;2023-02-05T09:24:06;12.23;;;7.70;;
34928;SDS011;21133;48.048;7.724;2023-02-05T09:26:32;10.80;;;6.60;;
34928;SDS011;21133;48.048;7.724;2023-02-05T09:28:58;12.50;;;8.17;;
34928;SDS011;21133;48.048;7.724;2023-02-05T09:31:24;7.77;;;6.93;;
34928;SDS011;21133;48.048;7.724;2023-02-05T09:33:50;10.10;;;7.50;;
34928;SDS011;21133;48.048;7.724;2023-02-05T09:36:17;7.30;;;6.53;;
34928;SDS011;21133;48.048;7.724;2023-02-05T09:38:43;35.43;;;21.50;;
34928;SDS011;21133;48.048;7.724;2023-02-05T09:49:20;15.90;;;8.47;;
34928;SDS011;21133;48.048;7.724;2023-02-05T09:51:50;9.33;;;7.63;;
34928;SDS011;21133;48.048;7.724;2023-02-05T09:54:21;12.33;;;7.77;;
34928;SDS011;21133;48.048;7.724;2023-02-05T09:56:49;9.50;;;8.27;;
34928;SDS011;21133;48.048;7.724;2023-02-05T09:59:17;22.80;;;8.63;;
34928;SDS011;21133;48.048;7.724;2023-02-05T10:01:48;15.83;;;8.90;;
34928;SDS011;21133;48.048;7.724;2023-02-05T10:04:15;10.07;;;7.70;;
34928;SDS011;21133;48.048;7.724;2023-02-05T10:09:24;9.03;;;7.40;;
34928;SDS011;21133;48.048;7.724;2023-02-05T10:12:05;9.10;;;7.67;;
34928;SDS011;21133;48.048;7.724;2023-02-05T10:19:43;14.70;;;9.07;;
34928;SDS011;21133;48.048;7.724;2023-02-05T10:22:27;14.60;;;8.20;;
34928;SDS011;21133;48.048;7.724;2023-02-05T10:30:34;12.17;;;7.90;;
34928;SDS011;21133;48.048;7.724;2023-02-05T10:33:07;21.45;;;11.98;;
34928;SDS011;21133;48.048;7.724;2023-02-05T10:35:39;23.43;;;11.30;;
34928;SDS011;21133;48.048;7.724;2023-02-05T10:38:22;17.57;;;11.37;;
34928;SDS011;21133;48.048;7.724;2023-02-05T10:40:50;18.07;;;11.10;;
34928;SDS011;21133;48.048;7.724;2023-02-05T10:45:49;15.90;;;9.93;;
34928;SDS011;21133;48.048;7.724;2023-02-05T10:50:59;13.37;;;8.60;;
34928;SDS011;21133;48.048;7.724;2023-02-05T10:53:26;10.77;;;8.47;;
34928;SDS011;21133;48.048;7.724;2023-02-05T10:55:52;14.67;;;8.93;;
34928;SDS011;21133;48.048;7.724;2023-02-05T11:01:04;13.73;;;10.77;;
34928;SDS011;21133;48.048;7.724;2023-02-05T11:03:30;20.87;;;14.50;;
34928;SDS011;21133;48.048;7.724;2023-02-05T11:05:57;30.63;;;17.60;;
34928;SDS011;21133;48.048;7.724;2023-02-05T11:08:33;69.60;;;34.83;;
34928;SDS011;21133;48.048;7.724;2023-02-05T11:11:00;89.27;;;38.97;;
34928;SDS011;21133;48.048;7.724;2023-02-05T11:13:26;72.70;;;34.73;;
34928;SDS011;21133;48.048;7.724;2023-02-05T11:15:54;14.20;;;10.10;;
34928;SDS011;21133;48.048;7.724;2023-02-05T11:18:22;15.63;;;9.60;;
34928;SDS011;21133;48.048;7.724;2023-02-05T11:20:58;8.43;;;7.63;;
34928;SDS011;21133;48.048;7.724;2023-02-05T11:23:25;9.90;;;8.47;;
34928;SDS011;21133;48.048;7.724;2023-02-05T11:25:54;17.43;;;10.70;;
34928;SDS011;21133;48.048;7.724;2023-02-05T11:28:30;10.33;;;7.73;;
34928;SDS011;21133;48.048;7.724;2023-02-05T11:30:57;12.23;;;8.70;;
34928;SDS011;21133;48.048;7.724;2023-02-05T11:33:43;14.30;;;10.63;;
34928;SDS011;21133;48.048;7.724;2023-02-05T11:36:16;22.00;;;13.03;;
34928;SDS011;21133;48.048;7.724;2023-02-05T11:38:47;21.97;;;14.07;;
34928;SDS011;21133;48.048;7.724;2023-02-05T11:41:30;25.50;;;16.80;;
34928;SDS011;21133;48.048;7.724;2023-02-05T11:44:00;37.53;;;17.93;;
34928;SDS011;21133;48.048;7.724;2023-02-05T11:46:28;16.23;;;10.37;;
34928;SDS011;21133;48.048;7.724;2023-02-05T11:48:57;11.20;;;8.43;;
34928;SDS011;21133;48.048;7.724;2023-02-05T11:51:42;12.67;;;8.50;;
34928;SDS011;21133;48.048;7.724;2023-02-05T11:57:06;20.93;;;10.60;;
34928;SDS011;21133;48.048;7.724;2023-02-05T11:59:31;9.20;;;8.20;;
34928;SDS011;21133;48.048;7.724;2023-02-05T12:02:42;10.70;;;8.53;;
34928;SDS011;21133;48.048;7.724;2023-02-05T12:04:45;14.70;;;11.23;;
34928;SDS011;21133;48.048;7.724;2023-02-05T12:07:12;14.53;;;11.00;;
34928;SDS011;21133;48.048;7.724;2023-02-05T12:09:39;33.00;;;15.03;;
34928;SDS011;21133;48.048;7.724;2023-02-05T12:12:07;48.13;;;19.97;;
34928;SDS011;21133;48.048;7.724;2023-02-05T12:32:52;8.43;;;7.60;;
34928;SDS011;21133;48.048;7.724;2023-02-05T12:43:14;11.40;;;6.23;;
34928;SDS011;21133;48.048;7.724;2023-02-05T12:45:51;10.43;;;5.70;;
34928;SDS011;21133;48.048;7.724;2023-02-05T12:51:04;12.80;;;5.50;;
34928;SDS011;21133;48.048;7.724;2023-02-05T12:53:40;9.60;;;5.80;;
34928;SDS011;21133;48.048;7.724;2023-02-05T12:58:41;13.27;;;5.73;;
34928;SDS011;21133;48.048;7.724;2023-02-05T13:03:58;7.33;;;6.20;;
34928;SDS011;21133;48.048;7.724;2023-02-05T13:06:36;7.97;;;7.10;;
34928;SDS011;21133;48.048;7.724;2023-02-05T13:09:05;10.07;;;5.40;;
34928;SDS011;21133;48.048;7.724;2023-02-05T13:11:33;7.97;;;5.00;;
34928;SDS011;21133;48.048;7.724;2023-02-05T13:14:19;6.53;;;5.70;;
34928;SDS011;21133;48.048;7.724;2023-02-05T13:16:47;8.63;;;5.53;;
34928;SDS011;21133;48.048;7.724;2023-02-05T13:19:21;11.37;;;6.30;;
34928;SDS011;21133;48.048;7.724;2023-02-05T13:21:49;10.57;;;5.57;;
34928;SDS011;21133;48.048;7.724;2023-02-05T13:24:55;5.77;;;5.30;;
34928;SDS011;21133;48.048;7.724;2023-02-05T13:27:41;8.93;;;5.50;;
34928;SDS011;21133;48.048;7.724;2023-02-05T13:30:32;5.73;;;4.37;;
34928;SDS011;21133;48.048;7.724;2023-02-05T13:33:00;7.00;;;4.70;;
34928;SDS011;21133;48.048;7.724;2023-02-05T13:35:30;7.57;;;5.83;;
34928;SDS011;21133;48.048;7.724;2023-02-05T13:48:25;4.63;;;4.23;;
34928;SDS011;21133;48.048;7.724;2023-02-05T13:53:28;6.33;;;5.70;;
34928;SDS011;21133;48.048;7.724;2023-02-05T13:58:56;6.83;;;5.27;;
34928;SDS011;21133;48.048;7.724;2023-02-05T14:01:31;8.17;;;5.10;;
34928;SDS011;21133;48.048;7.724;2023-02-05T14:04:04;14.83;;;4.90;;
34928;SDS011;21133;48.048;7.724;2023-02-05T14:06:34;7.23;;;6.60;;
34928;SDS011;21133;48.048;7.724;2023-02-05T14:11:44;7.20;;;4.27;;
34928;SDS011;21133;48.048;7.724;2023-02-05T14:16:46;7.23;;;5.67;;
34928;SDS011;21133;48.048;7.724;2023-02-05T14:22:07;5.17;;;4.77;;
34928;SDS011;21133;48.048;7.724;2023-02-05T14:24:48;6.40;;;5.90;;
34928;SDS011;21133;48.048;7.724;2023-02-05T14:27:42;8.40;;;5.83;;
34928;SDS011;21133;48.048;7.724;2023-02-05T14:40:53;8.43;;;7.07;;
34928;SDS011;21133;48.048;7.724;2023-02-05T14:43:26;11.53;;;6.87;;
34928;SDS011;21133;48.048;7.724;2023-02-05T14:46:02;8.00;;;7.30;;
34928;SDS011;21133;48.048;7.724;2023-02-05T14:48:29;12.90;;;6.80;;
34928;SDS011;21133;48.048;7.724;2023-02-05T14:51:02;8.57;;;6.80;;
34928;SDS011;21133;48.048;7.724;2023-02-05T14:53:28;9.13;;;6.23;;
34928;SDS011;21133;48.048;7.724;2023-02-05T14:55:54;7.30;;;6.40;;
34928;SDS011;21133;48.048;7.724;2023-02-05T14:58:32;6.80;;;6.13;;
34928;SDS011;21133;48.048;7.724;2023-02-05T15:03:44;7.23;;;6.53;;
34928;SDS011;21133;48.048;7.724;2023-02-05T15:06:13;7.40;;;5.50;;
34928;SDS011;21133;48.048;7.724;2023-02-05T15:11:53;7.60;;;5.73;;
34928;SDS011;21133;48.048;7.724;2023-02-05T15:14:35;9.87;;;7.53;;
34928;SDS011;21133;48.048;7.724;2023-02-05T15:24:45;5.30;;;4.90;;
34928;SDS011;21133;48.048;7.724;2023-02-05T15:27:17;5.20;;;4.70;;
34928;SDS011;21133;48.048;7.724;2023-02-05T15:29:47;10.07;;;5.40;;
34928;SDS011;21133;48.048;7.724;2023-02-05T15:32:28;4.80;;;4.50;;
34928;SDS011;21133;48.048;7.724;2023-02-05T15:37:31;12.93;;;7.10;;
34928;SDS011;21133;48.048;7.724;2023-02-05T15:44:55;8.20;;;7.50;;
34928;SDS011;21133;48.048;7.724;2023-02-05T15:47:22;8.17;;;5.20;;
34928;SDS011;21133;48.048;7.724;2023-02-05T15:49:49;5.50;;;5.00;;
34928;SDS011;21133;48.048;7.724;2023-02-05T15:52:23;11.27;;;6.57;;
34928;SDS011;21133;48.048;7.724;2023-02-05T15:54:50;6.57;;;5.60;;
34928;SDS011;21133;48.048;7.724;2023-02-05T15:57:17;5.70;;;5.13;;
34928;SDS011;21133;48.048;7.724;2023-02-05T15:59:44;6.77;;;6.03;;
34928;SDS011;21133;48.048;7.724;2023-02-05T16:02:15;6.60;;;5.97;;
34928;SDS011;21133;48.048;7.724;2023-02-05T16:04:42;9.53;;;6.03;;
34928;SDS011;21133;48.048;7.724;2023-02-05T16:07:42;19.87;;;8.27;;
34928;SDS011;21133;48.048;7.724;2023-02-05T16:10:01;10.80;;;7.47;;
34928;SDS011;21133;48.048;7.724;2023-02-05T16:13:00;8.50;;;7.63;;
34928;SDS011;21133;48.048;7.724;2023-02-05T16:17:59;5.90;;;5.40;;
34928;SDS011;21133;48.048;7.724;2023-02-05T16:20:27;5.73;;;4.70;;
34928;SDS011;21133;48.048;7.724;2023-02-05T16:27:51;11.80;;;9.90;;
34928;SDS011;21133;48.048;7.724;2023-02-05T16:30:19;9.13;;;7.50;;
34928;SDS011;21133;48.048;7.724;2023-02-05T16:32:46;13.00;;;8.47;;
34928;SDS011;21133;48.048;7.724;2023-02-05T16:35:20;7.70;;;6.70;;
34928;SDS011;21133;48.048;7.724;2023-02-05T16:37:47;15.53;;;10.33;;
34928;SDS011;21133;48.048;7.724;2023-02-05T16:40:13;9.67;;;8.87;;
34928;SDS011;21133;48.048;7.724;2023-02-05T16:42:40;12.13;;;7.87;;
34928;SDS011;21133;48.048;7.724;2023-02-05T16:47:33;8.20;;;6.30;;
34928;SDS011;21133;48.048;7.724;2023-02-05T16:50:00;7.87;;;7.10;;
34928;SDS011;21133;48.048;7.724;2023-02-05T16:54:52;14.70;;;11.13;;
34928;SDS011;21133;48.048;7.724;2023-02-05T16:57:22;12.23;;;8.67;;
34928;SDS011;21133;48.048;7.724;2023-02-05T17:02:48;25.30;;;16.63;;
34928;SDS011;21133;48.048;7.724;2023-02-05T17:05:20;19.13;;;11.40;;
34928;SDS011;21133;48.048;7.724;2023-02-05T17:10:22;16.73;;;9.63;;
34928;SDS011;21133;48.048;7.724;2023-02-05T17:13:00;14.87;;;11.47;;
34928;SDS011;21133;48.048;7.724;2023-02-05T17:15:31;12.33;;;9.53;;
34928;SDS011;21133;48.048;7.724;2023-02-05T17:17:59;14.80;;;9.87;;
34928;SDS011;21133;48.048;7.724;2023-02-05T17:20:30;20.30;;;11.07;;
34928;SDS011;21133;48.048;7.724;2023-02-05T17:25:23;7.37;;;5.87;;
34928;SDS011;21133;48.048;7.724;2023-02-05T17:27:49;12.27;;;9.70;;
34928;SDS011;21133;48.048;7.724;2023-02-05T17:30:16;11.43;;;8.20;;
34928;SDS011;21133;48.048;7.724;2023-02-05T17:32:43;11.70;;;8.57;;
34928;SDS011;21133;48.048;7.724;2023-02-05T17:35:14;19.47;;;12.07;;